sensor_id;sensor_type;location;lat;lon;timestamp;P1;durP1;ratioP1;P2;durP2;ratioP2
37409;SDS011;23275;48.914;12.566;2023-07-31T00:02:18;3.83;;;1.55;;
37409;SDS011;23275;48.914;12.566;2023-07-31T00:04:45;6.57;;;1.55;;
37409;SDS011;23275;48.914;12.566;2023-07-31T00:07:15;4.07;;;1.38;;
37409;SDS011;23275;48.914;12.566;2023-07-31T00:09:47;6.13;;;1.60;;
37409;SDS011;23275;48.914;12.566;2023-07-31T00:12:17;4.90;;;1.65;;
37409;SDS011;23275;48.914;12.566;2023-07-31T00:14:50;5.90;;;1.83;;
37409;SDS011;23275;48.914;12.566;2023-07-31T00:17:22;5.55;;;1.52;;
37409;SDS011;23275;48.914;12.566;2023-07-31T00:19:53;6.22;;;1.80;;
37409;SDS011;23275;48.914;12.566;2023-07-31T00:22:22;3.33;;;1.77;;
37409;SDS011;23275;48.914;12.566;2023-07-31T00:24:55;4.82;;;1.60;;
37409;SDS011;23275;48.914;12.566;2023-07-31T00:27:25;4.43;;;1.80;;
37409;SDS011;23275;48.914;12.566;2023-07-31T00:29:56;4.35;;;1.70;;
37409;SDS011;23275;48.914;12.566;2023-07-31T00:32:24;7.43;;;2.63;;
37409;SDS011;23275;48.914;12.566;2023-07-31T00:34:58;3.70;;;1.58;;
37409;SDS011;23275;48.914;12.566;2023-07-31T00:37:30;4.28;;;1.52;;
37409;SDS011;23275;48.914;12.566;2023-07-31T00:40:02;6.82;;;2.20;;
37409;SDS011;23275;48.914;12.566;2023-07-31T00:42:36;5.40;;;2.03;;
37409;SDS011;23275;48.914;12.566;2023-07-31T00:45:06;5.57;;;2.45;;
37409;SDS011;23275;48.914;12.566;2023-07-31T00:47:39;3.53;;;1.80;;
37409;SDS011;23275;48.914;12.566;2023-07-31T00:50:09;2.05;;;1.42;;
37409;SDS011;23275;48.914;12.566;2023-07-31T00:52:37;4.65;;;1.45;;
37409;SDS011;23275;48.914;12.566;2023-07-31T00:55:10;3.90;;;1.50;;
37409;SDS011;23275;48.914;12.566;2023-07-31T00:57:45;5.05;;;2.00;;
37409;SDS011;23275;48.914;12.566;2023-07-31T01:00:15;5.45;;;2.00;;
37409;SDS011;23275;48.914;12.566;2023-07-31T01:02:46;6.18;;;1.70;;
37409;SDS011;23275;48.914;12.566;2023-07-31T01:05:17;4.70;;;1.90;;
37409;SDS011;23275;48.914;12.566;2023-07-31T01:07:59;4.95;;;1.70;;
37409;SDS011;23275;48.914;12.566;2023-07-31T01:10:50;3.95;;;1.80;;
37409;SDS011;23275;48.914;12.566;2023-07-31T01:13:26;4.55;;;2.00;;
37409;SDS011;23275;48.914;12.566;2023-07-31T01:15:57;6.90;;;1.98;;
37409;SDS011;23275;48.914;12.566;2023-07-31T01:20:59;7.60;;;1.67;;
37409;SDS011;23275;48.914;12.566;2023-07-31T01:24:22;5.97;;;2.08;;
37409;SDS011;23275;48.914;12.566;2023-07-31T01:26:38;4.35;;;2.00;;
37409;SDS011;23275;48.914;12.566;2023-07-31T01:32:14;4.80;;;1.92;;
37409;SDS011;23275;48.914;12.566;2023-07-31T01:34:51;3.65;;;1.98;;
37409;SDS011;23275;48.914;12.566;2023-07-31T01:37:21;5.78;;;2.15;;
37409;SDS011;23275;48.914;12.566;2023-07-31T01:40:06;3.70;;;1.98;;
37409;SDS011;23275;48.914;12.566;2023-07-31T01:42:39;4.53;;;1.85;;
37409;SDS011;23275;48.914;12.566;2023-07-31T01:45:06;5.18;;;1.83;;
37409;SDS011;23275;48.914;12.566;2023-07-31T01:47:33;11.10;;;2.90;;
37409;SDS011;23275;48.914;12.566;2023-07-31T01:50:00;6.72;;;1.90;;
37409;SDS011;23275;48.914;12.566;2023-07-31T01:52:30;3.40;;;1.70;;
37409;SDS011;23275;48.914;12.566;2023-07-31T01:55:00;3.42;;;1.98;;
37409;SDS011;23275;48.914;12.566;2023-07-31T01:57:28;5.68;;;1.95;;
37409;SDS011;23275;48.914;12.566;2023-07-31T01:59:55;3.45;;;1.63;;
37409;SDS011;23275;48.914;12.566;2023-07-31T02:02:31;5.15;;;1.80;;
37409;SDS011;23275;48.914;12.566;2023-07-31T02:07:31;5.70;;;1.80;;
37409;SDS011;23275;48.914;12.566;2023-07-31T02:09:58;8.00;;;1.83;;
37409;SDS011;23275;48.914;12.566;2023-07-31T02:12:25;6.82;;;1.75;;
37409;SDS011;23275;48.914;12.566;2023-07-31T02:14:54;7.57;;;1.85;;
37409;SDS011;23275;48.914;12.566;2023-07-31T02:17:26;6.07;;;1.40;;
37409;SDS011;23275;48.914;12.566;2023-07-31T02:19:59;5.63;;;1.55;;
37409;SDS011;23275;48.914;12.566;2023-07-31T02:22:41;4.75;;;1.95;;
37409;SDS011;23275;48.914;12.566;2023-07-31T02:25:11;8.05;;;1.50;;
37409;SDS011;23275;48.914;12.566;2023-07-31T02:27:47;3.92;;;1.65;;
37409;SDS011;23275;48.914;12.566;2023-07-31T02:30:17;8.70;;;1.50;;
37409;SDS011;23275;48.914;12.566;2023-07-31T02:32:47;3.67;;;1.38;;
37409;SDS011;23275;48.914;12.566;2023-07-31T02:35:20;5.43;;;1.73;;
37409;SDS011;23275;48.914;12.566;2023-07-31T02:37:50;4.88;;;1.58;;
37409;SDS011;23275;48.914;12.566;2023-07-31T02:40:17;3.78;;;1.55;;
37409;SDS011;23275;48.914;12.566;2023-07-31T02:42:44;8.23;;;1.70;;
37409;SDS011;23275;48.914;12.566;2023-07-31T02:45:11;6.20;;;2.67;;
37409;SDS011;23275;48.914;12.566;2023-07-31T02:47:41;7.78;;;2.00;;
37409;SDS011;23275;48.914;12.566;2023-07-31T02:50:14;7.40;;;1.90;;
37409;SDS011;23275;48.914;12.566;2023-07-31T02:52:45;6.28;;;2.05;;
37409;SDS011;23275;48.914;12.566;2023-07-31T02:55:12;5.72;;;2.72;;
37409;SDS011;23275;48.914;12.566;2023-07-31T02:57:43;5.68;;;1.60;;
37409;SDS011;23275;48.914;12.566;2023-07-31T03:00:18;3.95;;;2.00;;
37409;SDS011;23275;48.914;12.566;2023-07-31T03:02:49;4.53;;;2.00;;
37409;SDS011;23275;48.914;12.566;2023-07-31T03:05:17;4.57;;;2.10;;
37409;SDS011;23275;48.914;12.566;2023-07-31T03:07:59;10.60;;;2.10;;
37409;SDS011;23275;48.914;12.566;2023-07-31T03:10:29;7.97;;;2.17;;
37409;SDS011;23275;48.914;12.566;2023-07-31T03:12:59;6.25;;;1.60;;
37409;SDS011;23275;48.914;12.566;2023-07-31T03:15:29;3.53;;;1.20;;
37409;SDS011;23275;48.914;12.566;2023-07-31T03:18:02;6.47;;;1.58;;
37409;SDS011;23275;48.914;12.566;2023-07-31T03:20:32;3.10;;;1.52;;
37409;SDS011;23275;48.914;12.566;2023-07-31T03:23:05;5.43;;;1.77;;
37409;SDS011;23275;48.914;12.566;2023-07-31T03:25:37;3.70;;;1.70;;
37409;SDS011;23275;48.914;12.566;2023-07-31T03:28:27;4.28;;;2.28;;
37409;SDS011;23275;48.914;12.566;2023-07-31T03:30:57;4.65;;;2.33;;
37409;SDS011;23275;48.914;12.566;2023-07-31T03:33:36;5.53;;;2.20;;
37409;SDS011;23275;48.914;12.566;2023-07-31T03:36:12;3.88;;;2.00;;
37409;SDS011;23275;48.914;12.566;2023-07-31T03:38:39;7.38;;;1.95;;
37409;SDS011;23275;48.914;12.566;2023-07-31T03:41:07;4.28;;;1.90;;
37409;SDS011;23275;48.914;12.566;2023-07-31T03:43:37;4.90;;;2.10;;
37409;SDS011;23275;48.914;12.566;2023-07-31T03:46:20;6.03;;;2.25;;
37409;SDS011;23275;48.914;12.566;2023-07-31T03:48:50;3.47;;;1.75;;
37409;SDS011;23275;48.914;12.566;2023-07-31T03:51:20;7.70;;;2.17;;
37409;SDS011;23275;48.914;12.566;2023-07-31T03:53:49;6.95;;;2.13;;
37409;SDS011;23275;48.914;12.566;2023-07-31T03:56:17;6.07;;;2.15;;
37409;SDS011;23275;48.914;12.566;2023-07-31T03:58:50;3.47;;;1.52;;
37409;SDS011;23275;48.914;12.566;2023-07-31T04:01:22;6.28;;;2.22;;
37409;SDS011;23275;48.914;12.566;2023-07-31T04:03:55;6.95;;;1.98;;
37409;SDS011;23275;48.914;12.566;2023-07-31T04:06:25;4.47;;;1.63;;
37409;SDS011;23275;48.914;12.566;2023-07-31T04:11:35;4.20;;;1.67;;
37409;SDS011;23275;48.914;12.566;2023-07-31T04:14:10;4.85;;;1.98;;
37409;SDS011;23275;48.914;12.566;2023-07-31T04:16:50;8.10;;;2.20;;
37409;SDS011;23275;48.914;12.566;2023-07-31T04:19:23;3.17;;;1.83;;
37409;SDS011;23275;48.914;12.566;2023-07-31T04:22:00;3.33;;;2.05;;
37409;SDS011;23275;48.914;12.566;2023-07-31T04:24:32;10.57;;;1.93;;
37409;SDS011;23275;48.914;12.566;2023-07-31T04:27:07;4.65;;;2.15;;
37409;SDS011;23275;48.914;12.566;2023-07-31T04:29:37;6.20;;;2.20;;
37409;SDS011;23275;48.914;12.566;2023-07-31T04:32:08;5.72;;;2.05;;
37409;SDS011;23275;48.914;12.566;2023-07-31T04:34:38;5.75;;;2.70;;
37409;SDS011;23275;48.914;12.566;2023-07-31T04:37:08;6.20;;;2.30;;
37409;SDS011;23275;48.914;12.566;2023-07-31T04:39:41;4.05;;;2.08;;
37409;SDS011;23275;48.914;12.566;2023-07-31T04:42:15;6.43;;;2.67;;
37409;SDS011;23275;48.914;12.566;2023-07-31T04:44:42;4.85;;;2.60;;
37409;SDS011;23275;48.914;12.566;2023-07-31T04:47:14;6.10;;;2.80;;
37409;SDS011;23275;48.914;12.566;2023-07-31T04:49:48;6.18;;;3.13;;
37409;SDS011;23275;48.914;12.566;2023-07-31T04:52:18;5.47;;;2.88;;
37409;SDS011;23275;48.914;12.566;2023-07-31T04:54:46;6.07;;;2.83;;
37409;SDS011;23275;48.914;12.566;2023-07-31T04:57:19;6.93;;;2.90;;
37409;SDS011;23275;48.914;12.566;2023-07-31T04:59:51;8.40;;;2.80;;
37409;SDS011;23275;48.914;12.566;2023-07-31T05:02:18;8.50;;;2.65;;
37409;SDS011;23275;48.914;12.566;2023-07-31T05:04:50;9.35;;;3.00;;
37409;SDS011;23275;48.914;12.566;2023-07-31T05:07:37;4.88;;;2.90;;
37409;SDS011;23275;48.914;12.566;2023-07-31T05:10:07;3.88;;;2.45;;
37409;SDS011;23275;48.914;12.566;2023-07-31T05:12:40;5.03;;;2.70;;
37409;SDS011;23275;48.914;12.566;2023-07-31T05:15:16;4.70;;;2.85;;
37409;SDS011;23275;48.914;12.566;2023-07-31T05:17:43;6.43;;;2.45;;
37409;SDS011;23275;48.914;12.566;2023-07-31T05:20:13;7.83;;;2.93;;
37409;SDS011;23275;48.914;12.566;2023-07-31T05:22:50;4.15;;;2.33;;
37409;SDS011;23275;48.914;12.566;2023-07-31T05:25:18;5.43;;;2.40;;
37409;SDS011;23275;48.914;12.566;2023-07-31T05:27:48;6.13;;;2.45;;
37409;SDS011;23275;48.914;12.566;2023-07-31T05:30:18;5.97;;;2.10;;
37409;SDS011;23275;48.914;12.566;2023-07-31T05:32:46;4.75;;;2.60;;
37409;SDS011;23275;48.914;12.566;2023-07-31T05:35:19;9.13;;;2.58;;
37409;SDS011;23275;48.914;12.566;2023-07-31T05:37:52;5.00;;;2.53;;
37409;SDS011;23275;48.914;12.566;2023-07-31T05:40:24;4.20;;;2.10;;
37409;SDS011;23275;48.914;12.566;2023-07-31T05:42:54;5.68;;;2.63;;
37409;SDS011;23275;48.914;12.566;2023-07-31T05:45:25;5.53;;;1.77;;
37409;SDS011;23275;48.914;12.566;2023-07-31T05:47:57;6.32;;;2.00;;
37409;SDS011;23275;48.914;12.566;2023-07-31T05:50:24;5.68;;;2.05;;
37409;SDS011;23275;48.914;12.566;2023-07-31T05:52:56;4.25;;;2.05;;
37409;SDS011;23275;48.914;12.566;2023-07-31T05:55:29;4.70;;;2.13;;
37409;SDS011;23275;48.914;12.566;2023-07-31T05:57:59;4.13;;;1.67;;
37409;SDS011;23275;48.914;12.566;2023-07-31T06:00:29;5.68;;;2.00;;
37409;SDS011;23275;48.914;12.566;2023-07-31T06:02:58;10.90;;;2.10;;
37409;SDS011;23275;48.914;12.566;2023-07-31T06:05:29;3.17;;;1.83;;
37409;SDS011;23275;48.914;12.566;2023-07-31T06:08:03;6.60;;;1.77;;
37409;SDS011;23275;48.914;12.566;2023-07-31T06:13:08;5.25;;;1.83;;
37409;SDS011;23275;48.914;12.566;2023-07-31T06:15:36;3.78;;;1.52;;
37409;SDS011;23275;48.914;12.566;2023-07-31T06:20:37;5.95;;;1.60;;
37409;SDS011;23275;48.914;12.566;2023-07-31T06:23:07;5.05;;;1.40;;
37409;SDS011;23275;48.914;12.566;2023-07-31T06:25:38;9.10;;;2.05;;
37409;SDS011;23275;48.914;12.566;2023-07-31T06:30:39;6.85;;;1.58;;
37409;SDS011;23275;48.914;12.566;2023-07-31T06:33:12;7.40;;;1.80;;
37409;SDS011;23275;48.914;12.566;2023-07-31T06:35:45;6.50;;;1.77;;
37409;SDS011;23275;48.914;12.566;2023-07-31T06:38:19;3.65;;;1.10;;
37409;SDS011;23275;48.914;12.566;2023-07-31T06:40:50;5.72;;;1.80;;
37409;SDS011;23275;48.914;12.566;2023-07-31T06:43:26;4.40;;;1.58;;
37409;SDS011;23275;48.914;12.566;2023-07-31T06:46:00;5.57;;;1.20;;
37409;SDS011;23275;48.914;12.566;2023-07-31T06:48:32;5.55;;;1.33;;
37409;SDS011;23275;48.914;12.566;2023-07-31T06:51:03;4.10;;;1.02;;
37409;SDS011;23275;48.914;12.566;2023-07-31T06:53:36;5.90;;;1.60;;
37409;SDS011;23275;48.914;12.566;2023-07-31T06:56:07;6.78;;;1.50;;
37409;SDS011;23275;48.914;12.566;2023-07-31T06:58:37;5.82;;;1.40;;
37409;SDS011;23275;48.914;12.566;2023-07-31T07:01:10;3.53;;;1.33;;
37409;SDS011;23275;48.914;12.566;2023-07-31T07:03:43;5.18;;;1.55;;
37409;SDS011;23275;48.914;12.566;2023-07-31T07:06:19;5.53;;;1.48;;
37409;SDS011;23275;48.914;12.566;2023-07-31T07:08:49;4.53;;;1.45;;
37409;SDS011;23275;48.914;12.566;2023-07-31T07:11:19;4.72;;;1.50;;
37409;SDS011;23275;48.914;12.566;2023-07-31T07:13:52;5.55;;;1.40;;
37409;SDS011;23275;48.914;12.566;2023-07-31T07:16:25;5.18;;;1.52;;
37409;SDS011;23275;48.914;12.566;2023-07-31T07:18:54;5.43;;;1.42;;
37409;SDS011;23275;48.914;12.566;2023-07-31T07:21:25;5.93;;;1.80;;
37409;SDS011;23275;48.914;12.566;2023-07-31T07:23:54;4.78;;;1.30;;
37409;SDS011;23275;48.914;12.566;2023-07-31T07:26:32;8.68;;;4.32;;
37409;SDS011;23275;48.914;12.566;2023-07-31T07:29:02;4.95;;;1.75;;
37409;SDS011;23275;48.914;12.566;2023-07-31T07:31:33;5.93;;;1.30;;
37409;SDS011;23275;48.914;12.566;2023-07-31T07:34:01;4.90;;;1.15;;
37409;SDS011;23275;48.914;12.566;2023-07-31T07:36:28;4.22;;;1.00;;
37409;SDS011;23275;48.914;12.566;2023-07-31T07:38:58;2.58;;;1.35;;
37409;SDS011;23275;48.914;12.566;2023-07-31T07:41:35;22.35;;;6.55;;
37409;SDS011;23275;48.914;12.566;2023-07-31T07:44:05;17.33;;;4.38;;
37409;SDS011;23275;48.914;12.566;2023-07-31T07:46:33;20.55;;;5.60;;
37409;SDS011;23275;48.914;12.566;2023-07-31T07:49:03;12.18;;;3.67;;
37409;SDS011;23275;48.914;12.566;2023-07-31T07:51:34;5.40;;;1.40;;
37409;SDS011;23275;48.914;12.566;2023-07-31T07:54:07;9.20;;;2.58;;
37409;SDS011;23275;48.914;12.566;2023-07-31T07:56:40;4.05;;;1.20;;
37409;SDS011;23275;48.914;12.566;2023-07-31T07:59:08;5.53;;;1.33;;
37409;SDS011;23275;48.914;12.566;2023-07-31T08:01:38;5.18;;;1.92;;
37409;SDS011;23275;48.914;12.566;2023-07-31T08:04:06;6.47;;;1.40;;
37409;SDS011;23275;48.914;12.566;2023-07-31T08:06:45;6.18;;;1.20;;
37409;SDS011;23275;48.914;12.566;2023-07-31T08:09:20;5.05;;;1.17;;
37409;SDS011;23275;48.914;12.566;2023-07-31T08:11:50;3.72;;;1.20;;
37409;SDS011;23275;48.914;12.566;2023-07-31T08:14:23;3.97;;;1.33;;
37409;SDS011;23275;48.914;12.566;2023-07-31T08:16:52;8.27;;;2.57;;
37409;SDS011;23275;48.914;12.566;2023-07-31T08:19:24;7.43;;;1.02;;
37409;SDS011;23275;48.914;12.566;2023-07-31T08:22:03;4.55;;;1.38;;
37409;SDS011;23275;48.914;12.566;2023-07-31T08:24:33;6.03;;;2.00;;
37409;SDS011;23275;48.914;12.566;2023-07-31T08:27:03;3.78;;;1.02;;
37409;SDS011;23275;48.914;12.566;2023-07-31T08:29:32;4.30;;;0.98;;
37409;SDS011;23275;48.914;12.566;2023-07-31T08:32:02;4.72;;;1.10;;
37409;SDS011;23275;48.914;12.566;2023-07-31T08:37:01;3.25;;;0.80;;
37409;SDS011;23275;48.914;12.566;2023-07-31T08:39:39;5.90;;;0.95;;
37409;SDS011;23275;48.914;12.566;2023-07-31T08:42:19;2.40;;;0.70;;
37409;SDS011;23275;48.914;12.566;2023-07-31T08:44:46;2.42;;;1.08;;
37409;SDS011;23275;48.914;12.566;2023-07-31T08:47:13;2.53;;;0.82;;
37409;SDS011;23275;48.914;12.566;2023-07-31T08:50:03;3.45;;;0.98;;
37409;SDS011;23275;48.914;12.566;2023-07-31T08:52:34;2.70;;;0.93;;
37409;SDS011;23275;48.914;12.566;2023-07-31T08:55:01;2.83;;;1.08;;
37409;SDS011;23275;48.914;12.566;2023-07-31T08:57:28;4.43;;;1.20;;
37409;SDS011;23275;48.914;12.566;2023-07-31T08:59:58;3.50;;;1.60;;
37409;SDS011;23275;48.914;12.566;2023-07-31T09:02:41;4.40;;;1.30;;
37409;SDS011;23275;48.914;12.566;2023-07-31T09:05:13;7.32;;;3.50;;
37409;SDS011;23275;48.914;12.566;2023-07-31T09:07:45;4.55;;;1.80;;
37409;SDS011;23275;48.914;12.566;2023-07-31T09:10:17;3.97;;;1.20;;
37409;SDS011;23275;48.914;12.566;2023-07-31T09:15:17;2.00;;;0.80;;
37409;SDS011;23275;48.914;12.566;2023-07-31T09:17:47;3.17;;;1.20;;
37409;SDS011;23275;48.914;12.566;2023-07-31T09:20:26;4.78;;;1.33;;
37409;SDS011;23275;48.914;12.566;2023-07-31T09:22:59;3.83;;;1.00;;
37409;SDS011;23275;48.914;12.566;2023-07-31T09:25:37;5.00;;;0.98;;
37409;SDS011;23275;48.914;12.566;2023-07-31T09:28:10;3.03;;;0.90;;
37409;SDS011;23275;48.914;12.566;2023-07-31T09:30:51;3.65;;;1.10;;
37409;SDS011;23275;48.914;12.566;2023-07-31T09:33:28;3.28;;;1.02;;
37409;SDS011;23275;48.914;12.566;2023-07-31T09:35:58;6.82;;;1.08;;
37409;SDS011;23275;48.914;12.566;2023-07-31T09:38:35;5.25;;;1.10;;
37409;SDS011;23275;48.914;12.566;2023-07-31T09:41:04;3.88;;;0.98;;
37409;SDS011;23275;48.914;12.566;2023-07-31T09:43:45;3.00;;;1.00;;
37409;SDS011;23275;48.914;12.566;2023-07-31T09:46:22;4.27;;;1.10;;
37409;SDS011;23275;48.914;12.566;2023-07-31T09:49:04;4.50;;;0.90;;
37409;SDS011;23275;48.914;12.566;2023-07-31T09:51:47;3.20;;;1.00;;
37409;SDS011;23275;48.914;12.566;2023-07-31T09:54:16;2.55;;;1.00;;
37409;SDS011;23275;48.914;12.566;2023-07-31T09:56:48;4.35;;;1.33;;
37409;SDS011;23275;48.914;12.566;2023-07-31T09:59:23;2.70;;;0.90;;
37409;SDS011;23275;48.914;12.566;2023-07-31T10:01:55;4.32;;;1.10;;
37409;SDS011;23275;48.914;12.566;2023-07-31T10:04:23;3.17;;;0.93;;
37409;SDS011;23275;48.914;12.566;2023-07-31T10:06:55;2.80;;;1.00;;
37409;SDS011;23275;48.914;12.566;2023-07-31T10:09:28;4.03;;;1.13;;
37409;SDS011;23275;48.914;12.566;2023-07-31T10:12:05;2.70;;;0.80;;
37409;SDS011;23275;48.914;12.566;2023-07-31T10:14:37;2.50;;;0.88;;
37409;SDS011;23275;48.914;12.566;2023-07-31T10:17:13;3.75;;;1.00;;
37409;SDS011;23275;48.914;12.566;2023-07-31T10:19:46;2.13;;;0.90;;
37409;SDS011;23275;48.914;12.566;2023-07-31T10:22:20;4.68;;;1.08;;
37409;SDS011;23275;48.914;12.566;2023-07-31T10:25:08;3.35;;;1.08;;
37409;SDS011;23275;48.914;12.566;2023-07-31T10:27:36;2.37;;;1.00;;
37409;SDS011;23275;48.914;12.566;2023-07-31T10:30:08;2.42;;;0.90;;
37409;SDS011;23275;48.914;12.566;2023-07-31T10:32:41;4.25;;;0.85;;
37409;SDS011;23275;48.914;12.566;2023-07-31T10:35:11;3.28;;;0.90;;
37409;SDS011;23275;48.914;12.566;2023-07-31T10:37:49;2.70;;;1.00;;
37409;SDS011;23275;48.914;12.566;2023-07-31T10:40:26;2.28;;;0.90;;
37409;SDS011;23275;48.914;12.566;2023-07-31T10:42:54;2.13;;;0.80;;
37409;SDS011;23275;48.914;12.566;2023-07-31T10:48:01;2.47;;;1.17;;
37409;SDS011;23275;48.914;12.566;2023-07-31T10:50:48;3.63;;;0.90;;
37409;SDS011;23275;48.914;12.566;2023-07-31T10:53:25;3.10;;;1.20;;
37409;SDS011;23275;48.914;12.566;2023-07-31T10:55:58;3.10;;;1.00;;
37409;SDS011;23275;48.914;12.566;2023-07-31T10:58:54;4.57;;;0.98;;
37409;SDS011;23275;48.914;12.566;2023-07-31T11:01:47;3.05;;;1.10;;
37409;SDS011;23275;48.914;12.566;2023-07-31T11:04:25;2.65;;;0.77;;
37409;SDS011;23275;48.914;12.566;2023-07-31T11:06:58;6.25;;;1.05;;
37409;SDS011;23275;48.914;12.566;2023-07-31T11:09:31;3.93;;;1.17;;
37409;SDS011;23275;48.914;12.566;2023-07-31T11:12:01;2.97;;;1.00;;
37409;SDS011;23275;48.914;12.566;2023-07-31T11:14:37;2.78;;;0.80;;
37409;SDS011;23275;48.914;12.566;2023-07-31T11:17:06;2.85;;;0.98;;
37409;SDS011;23275;48.914;12.566;2023-07-31T11:19:39;2.83;;;0.90;;
37409;SDS011;23275;48.914;12.566;2023-07-31T11:22:07;3.42;;;1.02;;
37409;SDS011;23275;48.914;12.566;2023-07-31T11:24:34;3.53;;;1.20;;
37409;SDS011;23275;48.914;12.566;2023-07-31T11:27:07;3.03;;;1.10;;
37409;SDS011;23275;48.914;12.566;2023-07-31T11:29:33;3.27;;;1.20;;
37409;SDS011;23275;48.914;12.566;2023-07-31T11:32:02;4.78;;;1.08;;
37409;SDS011;23275;48.914;12.566;2023-07-31T11:34:53;4.45;;;1.35;;
37409;SDS011;23275;48.914;12.566;2023-07-31T11:37:40;2.92;;;1.10;;
37409;SDS011;23275;48.914;12.566;2023-07-31T11:40:14;3.13;;;0.95;;
37409;SDS011;23275;48.914;12.566;2023-07-31T11:42:45;4.50;;;1.42;;
37409;SDS011;23275;48.914;12.566;2023-07-31T11:45:11;2.65;;;1.17;;
37409;SDS011;23275;48.914;12.566;2023-07-31T11:47:47;3.78;;;1.27;;
37409;SDS011;23275;48.914;12.566;2023-07-31T11:50:20;3.17;;;1.10;;
37409;SDS011;23275;48.914;12.566;2023-07-31T11:52:52;3.28;;;1.20;;
37409;SDS011;23275;48.914;12.566;2023-07-31T11:55:25;3.33;;;1.02;;
37409;SDS011;23275;48.914;12.566;2023-07-31T11:57:56;4.10;;;0.95;;
37409;SDS011;23275;48.914;12.566;2023-07-31T12:00:29;2.60;;;1.08;;
37409;SDS011;23275;48.914;12.566;2023-07-31T12:03:03;5.20;;;1.80;;
37409;SDS011;23275;48.914;12.566;2023-07-31T12:05:35;3.63;;;1.20;;
37409;SDS011;23275;48.914;12.566;2023-07-31T12:08:08;2.42;;;1.20;;
37409;SDS011;23275;48.914;12.566;2023-07-31T12:10:38;3.10;;;1.08;;
37409;SDS011;23275;48.914;12.566;2023-07-31T12:13:11;3.72;;;1.27;;
37409;SDS011;23275;48.914;12.566;2023-07-31T12:15:53;3.33;;;1.13;;
37409;SDS011;23275;48.914;12.566;2023-07-31T12:18:27;2.28;;;1.00;;
37409;SDS011;23275;48.914;12.566;2023-07-31T12:20:59;3.17;;;1.02;;
37409;SDS011;23275;48.914;12.566;2023-07-31T12:23:31;4.32;;;1.60;;
37409;SDS011;23275;48.914;12.566;2023-07-31T12:26:12;6.22;;;1.23;;
37409;SDS011;23275;48.914;12.566;2023-07-31T12:28:45;3.85;;;1.15;;
37409;SDS011;23275;48.914;12.566;2023-07-31T12:31:21;2.67;;;1.35;;
37409;SDS011;23275;48.914;12.566;2023-07-31T12:33:52;3.97;;;1.40;;
37409;SDS011;23275;48.914;12.566;2023-07-31T12:36:24;4.28;;;1.27;;
37409;SDS011;23275;48.914;12.566;2023-07-31T12:38:56;7.75;;;1.27;;
37409;SDS011;23275;48.914;12.566;2023-07-31T12:41:24;2.97;;;1.20;;
37409;SDS011;23275;48.914;12.566;2023-07-31T12:43:55;3.92;;;1.08;;
37409;SDS011;23275;48.914;12.566;2023-07-31T12:46:32;2.25;;;1.02;;
37409;SDS011;23275;48.914;12.566;2023-07-31T12:49:08;3.38;;;1.13;;
37409;SDS011;23275;48.914;12.566;2023-07-31T12:51:39;2.55;;;0.98;;
37409;SDS011;23275;48.914;12.566;2023-07-31T12:54:09;3.20;;;1.23;;
37409;SDS011;23275;48.914;12.566;2023-07-31T12:56:37;2.88;;;1.20;;
37409;SDS011;23275;48.914;12.566;2023-07-31T12:59:07;3.90;;;0.77;;
37409;SDS011;23275;48.914;12.566;2023-07-31T13:04:10;3.72;;;1.73;;
37409;SDS011;23275;48.914;12.566;2023-07-31T13:06:46;2.20;;;1.10;;
37409;SDS011;23275;48.914;12.566;2023-07-31T13:09:19;3.80;;;1.30;;
37409;SDS011;23275;48.914;12.566;2023-07-31T13:11:47;2.42;;;0.90;;
37409;SDS011;23275;48.914;12.566;2023-07-31T13:14:18;3.92;;;1.10;;
37409;SDS011;23275;48.914;12.566;2023-07-31T13:16:48;4.68;;;1.15;;
37409;SDS011;23275;48.914;12.566;2023-07-31T13:19:19;5.38;;;1.20;;
37409;SDS011;23275;48.914;12.566;2023-07-31T13:21:47;3.08;;;1.20;;
37409;SDS011;23275;48.914;12.566;2023-07-31T13:24:22;3.20;;;1.20;;
37409;SDS011;23275;48.914;12.566;2023-07-31T13:26:55;4.25;;;1.10;;
37409;SDS011;23275;48.914;12.566;2023-07-31T13:29:28;5.05;;;1.15;;
37409;SDS011;23275;48.914;12.566;2023-07-31T13:31:58;3.38;;;1.10;;
37409;SDS011;23275;48.914;12.566;2023-07-31T13:34:24;3.90;;;1.10;;
37409;SDS011;23275;48.914;12.566;2023-07-31T13:36:57;4.43;;;1.30;;
37409;SDS011;23275;48.914;12.566;2023-07-31T13:41:59;2.10;;;0.80;;
37409;SDS011;23275;48.914;12.566;2023-07-31T13:44:27;4.78;;;1.33;;
37409;SDS011;23275;48.914;12.566;2023-07-31T13:46:55;7.75;;;1.23;;
37409;SDS011;23275;48.914;12.566;2023-07-31T13:49:26;3.17;;;1.10;;
37409;SDS011;23275;48.914;12.566;2023-07-31T13:51:58;3.10;;;1.23;;
37409;SDS011;23275;48.914;12.566;2023-07-31T13:54:29;3.92;;;1.30;;
37409;SDS011;23275;48.914;12.566;2023-07-31T13:56:56;4.32;;;1.13;;
37409;SDS011;23275;48.914;12.566;2023-07-31T13:59:29;9.82;;;1.75;;
37409;SDS011;23275;48.914;12.566;2023-07-31T14:01:59;3.40;;;1.40;;
37409;SDS011;23275;48.914;12.566;2023-07-31T14:04:34;3.00;;;1.10;;
37409;SDS011;23275;48.914;12.566;2023-07-31T14:07:04;3.72;;;1.33;;
37409;SDS011;23275;48.914;12.566;2023-07-31T14:09:33;4.53;;;1.20;;
37409;SDS011;23275;48.914;12.566;2023-07-31T14:12:01;4.22;;;1.30;;
37409;SDS011;23275;48.914;12.566;2023-07-31T14:14:34;6.82;;;1.45;;
37409;SDS011;23275;48.914;12.566;2023-07-31T14:19:27;3.72;;;1.30;;
37409;SDS011;23275;48.914;12.566;2023-07-31T14:24:41;3.63;;;1.50;;
37409;SDS011;23275;48.914;12.566;2023-07-31T14:27:08;5.13;;;1.70;;
37409;SDS011;23275;48.914;12.566;2023-07-31T14:29:42;7.38;;;2.08;;
37409;SDS011;23275;48.914;12.566;2023-07-31T14:32:15;6.30;;;1.50;;
37409;SDS011;23275;48.914;12.566;2023-07-31T14:34:42;9.65;;;3.13;;
37409;SDS011;23275;48.914;12.566;2023-07-31T14:39:42;3.75;;;1.52;;
37409;SDS011;23275;48.914;12.566;2023-07-31T14:42:18;8.32;;;2.92;;
37409;SDS011;23275;48.914;12.566;2023-07-31T14:44:49;8.63;;;2.17;;
37409;SDS011;23275;48.914;12.566;2023-07-31T14:47:27;4.32;;;1.50;;
37409;SDS011;23275;48.914;12.566;2023-07-31T14:49:57;3.20;;;1.45;;
37409;SDS011;23275;48.914;12.566;2023-07-31T14:52:31;7.57;;;2.40;;
37409;SDS011;23275;48.914;12.566;2023-07-31T14:54:59;4.18;;;1.70;;
37409;SDS011;23275;48.914;12.566;2023-07-31T14:57:27;3.97;;;1.50;;
37409;SDS011;23275;48.914;12.566;2023-07-31T14:59:57;3.58;;;1.60;;
37409;SDS011;23275;48.914;12.566;2023-07-31T15:02:29;3.97;;;1.25;;
37409;SDS011;23275;48.914;12.566;2023-07-31T15:05:07;5.45;;;1.50;;
37409;SDS011;23275;48.914;12.566;2023-07-31T15:07:38;5.82;;;1.30;;
37409;SDS011;23275;48.914;12.566;2023-07-31T15:10:08;4.63;;;1.52;;
37409;SDS011;23275;48.914;12.566;2023-07-31T15:12:41;3.33;;;1.58;;
37409;SDS011;23275;48.914;12.566;2023-07-31T15:15:14;3.50;;;1.63;;
37409;SDS011;23275;48.914;12.566;2023-07-31T15:17:48;5.90;;;1.95;;
37409;SDS011;23275;48.914;12.566;2023-07-31T15:20:23;3.65;;;1.30;;
37409;SDS011;23275;48.914;12.566;2023-07-31T15:22:50;3.33;;;1.65;;
37409;SDS011;23275;48.914;12.566;2023-07-31T15:25:16;6.00;;;1.98;;
37409;SDS011;23275;48.914;12.566;2023-07-31T15:27:43;3.63;;;1.73;;
37409;SDS011;23275;48.914;12.566;2023-07-31T15:30:15;5.70;;;1.67;;
37409;SDS011;23275;48.914;12.566;2023-07-31T15:32:53;3.40;;;1.60;;
37409;SDS011;23275;48.914;12.566;2023-07-31T15:35:24;5.75;;;1.80;;
37409;SDS011;23275;48.914;12.566;2023-07-31T15:37:55;5.43;;;1.63;;
37409;SDS011;23275;48.914;12.566;2023-07-31T15:42:55;4.53;;;1.70;;
37409;SDS011;23275;48.914;12.566;2023-07-31T15:45:22;4.28;;;1.77;;